American Fork, Utah
Current Conditions -  °F | °C
As of 9:48 AM on Wednesday 26 Nov 2014 (Local Time) from KPVU Reporting Station
Scattered Clouds Scattered Clouds  
Wind Chill: 39°   Ceiling: Unl
Heat Index: 39°   Visibility: 15mi
Dew Point: 28°   Wind: 0mph
Humidity: 65%   Direction: NA
Pressure: 30.44"   Gusts: NA
Location:  40.38°N, 111.79°W
Report Text: KPVU 261648Z 00000KT 15SM SCT160 04/M02 A3044
Loading
Personal Weather Stations






























Interactive Weather Map New forecast layout! Learn more

10-Day Weather Forecast

Advertisements
Track Severe Weather on mobile